Orlando, FL (32818)

12:10 AM EDT on July 24, 2017 (GMT -0400)
Baton Rouge Drive | | Change Station

Elev 144 ft 28.57 °N, 81.51 °W | Updated 5 seconds ago

Partly Cloudy
Partly Cloudy
75.6 °F
Feels Like 75 °F
N
0.0
Wind Variable Wind from West

Today
High -- | Low -- °F
--% Chance of Precip.
Yesterday
High -- | Low -- °F
Precip. -- in
Pressure 30.06 in
Visibility 10.0 miles
Clouds Scattered Clouds 2000 ft
Mostly Cloudy 16000 ft
Overcast 25000 ft
Heat Index 75 °F
Dew Point 74 °F
Humidity 95%
Rainfall 0.00 in
Snow Depth Not available.
6:43 AM 8:21 PM
New Moon, 1% visible
METAR KMCO 240353Z 16003KT 10SM SCT020 BKN160 OVC250 26/25 A3006 RMK AO2 SLP177 T02560250
Pressure 30.06 in
Visibility 10.0 miles
Clouds Scattered Clouds 2000 ft
Mostly Cloudy 16000 ft
Overcast 25000 ft
Heat Index 75 °F
Dew Point 74 °F
Humidity 95%
Rainfall 0.00 in
Snow Depth Not available.
6:43 AM 8:21 PM
New Moon, 1% visible
METAR KMCO 240353Z 16003KT 10SM SCT020 BKN160 OVC250 26/25 A3006 RMK AO2 SLP177 T02560250

Get Severe Weather Alerts

Thanks for signing up!

Be on the lookout for a verification email in your inbox.

You'll start receiving the daily forecast at 6 AM.

×

10-Day Weather Forecast

Almanac

Astronomy

Jul. 24, 2017 Rise Set
Actual Time
Civil Twilight
Nautical Twilight
Astronomical Twilight
Moon
Length of Visible Light
Length of Day
Tomorrow will be .
, % of the Moon is Illuminated

Today's Extremes

State Highs State Lows

Community

WunderPhotos

Category 6

Welcome to Category 6. This is the collective home for Weather Underground's featured writeups by Dr. Jeff Masters (right), Bob Henson (left), Chris Burt, and other regular contributors.

Nearby

Air Quality

  Air Quality AQ Index Pollutant
Not available.

Snow Depth

Station Depth Elevation

Earthquake Activity

City Distance Mag. Time & Date
Minimum magnitude displayed is 2.5.

Coastal Water Temperatures

Place Temperature

Stations

Nearby Weather Stations

Station Location Temp. Windchill Dew Point Humidity Wind Precip. Elev Updated Type
                   

Watches & Warnings

There are currently no watches in effect.